Time;durP1;ratioP1;P1;durP2;ratioP2;P2;SDS_P1;SDS_P2;PMS_P1;PMS_P2;Temp;Humidity;BMP_temperature;BMP_pressure;BME280_temperature;BME280_humidity;BME280_pressure;Samples;Min_cycle;Max_cycle;Signal;HPM_P1;HPM_P2
2023/08/12 00:01:03;;;;;;;5.30;1.95;;;;;;;18.06;50.32;100964.00;5030937;28;20554;-70
2023/08/12 00:03:32;;;;;;;4.53;2.00;;;;;;;18.02;50.27;100958.03;5031984;28;20219;-71
2023/08/12 00:06:01;;;;;;;4.40;2.75;;;;;;;17.99;50.59;100965.91;5031072;28;20223;-71
2023/08/12 00:08:30;;;;;;;7.00;2.85;;;;;;;17.98;50.50;100960.75;5032685;28;20282;-68
2023/08/12 00:10:58;;;;;;;3.33;2.30;;;;;;;17.95;50.63;100964.31;5031008;28;20304;-72
2023/08/12 00:13:26;;;;;;;5.53;2.15;;;;;;;17.96;50.69;100962.53;5031653;28;20628;-69
2023/08/12 00:15:55;;;;;;;4.97;2.80;;;;;;;17.93;50.78;100962.63;5025654;28;20286;-71
2023/08/12 00:18:24;;;;;;;6.75;2.80;;;;;;;17.92;50.89;100961.75;5033207;28;20203;-70
2023/08/12 00:20:52;;;;;;;3.95;2.38;;;;;;;17.91;50.75;100961.81;5032873;28;20705;-69
2023/08/12 00:23:20;;;;;;;4.13;2.60;;;;;;;17.91;50.78;100970.50;5030499;28;20203;-69
2023/08/12 00:25:53;;;;;;;4.15;2.40;;;;;;;17.90;51.02;100970.56;5023168;28;20234;-70
2023/08/12 00:28:21;;;;;;;4.55;2.40;;;;;;;17.85;51.18;100963.69;5032053;28;20207;-67
2023/08/12 00:30:49;;;;;;;4.82;2.28;;;;;;;17.84;50.95;100961.97;5027554;28;20206;-70
2023/08/12 00:33:19;;;;;;;4.13;2.38;;;;;;;17.79;50.70;100966.47;5023211;28;20204;-67
2023/08/12 00:35:47;;;;;;;4.93;1.70;;;;;;;17.75;51.04;100964.84;5019510;28;20293;-68
2023/08/12 00:38:15;;;;;;;4.28;1.92;;;;;;;17.71;51.09;100965.78;5028245;28;20199;-68
2023/08/12 00:40:43;;;;;;;4.82;2.28;;;;;;;17.67;51.11;100958.91;5025797;28;20289;-68
2023/08/12 00:43:11;;;;;;;3.63;2.17;;;;;;;17.65;51.53;100967.69;5033441;28;20206;-68
2023/08/12 00:45:40;;;;;;;4.63;2.33;;;;;;;17.60;51.65;100965.22;5031943;28;20767;-69
2023/08/12 00:48:09;;;;;;;2.47;2.10;;;;;;;17.57;51.92;100966.16;5029396;28;20207;-69
2023/08/12 00:50:43;;;;;;;3.00;2.25;;;;;;;17.56;51.91;100964.44;5031187;28;20206;-67
2023/08/12 00:53:12;;;;;;;3.25;1.90;;;;;;;17.55;51.88;100962.72;5024364;28;20245;-68
2023/08/12 00:55:41;;;;;;;3.92;2.03;;;;;;;17.54;51.99;100963.63;5028294;28;20214;-70
2023/08/12 00:58:09;;;;;;;9.50;3.28;;;;;;;17.52;51.97;100959.31;5024595;28;20211;-69
2023/08/12 01:00:38;;;;;;;4.90;2.15;;;;;;;17.51;51.69;100960.22;5029041;28;20199;-70
2023/08/12 01:03:06;;;;;;;4.80;2.38;;;;;;;17.49;51.82;100951.56;5029846;28;20329;-71
2023/08/12 01:05:35;;;;;;;4.70;1.90;;;;;;;17.44;51.77;100954.31;5025736;28;20314;-69
2023/08/12 01:08:09;;;;;;;4.22;2.20;;;;;;;17.43;51.91;100957.81;5030311;28;20234;-67
2023/08/12 01:10:43;;;;;;;3.85;2.00;;;;;;;17.40;52.10;100952.69;5029536;28;20203;-69
2023/08/12 01:13:24;;;;;;;4.90;2.35;;;;;;;17.36;52.20;100953.66;5029920;28;20273;-71
2023/08/12 01:15:56;;;;;;;4.18;2.30;;;;;;;17.33;52.37;100949.38;5026031;28;20195;-69
2023/08/12 01:18:25;;;;;;;3.42;1.95;;;;;;;17.31;52.26;100959.00;5020973;28;20271;-69
2023/08/12 01:20:54;;;;;;;3.92;1.90;;;;;;;17.30;52.40;100952.03;5029325;28;20281;-70
2023/08/12 01:23:23;;;;;;;3.67;2.22;;;;;;;17.29;52.48;100952.94;5030544;28;20207;-68
2023/08/12 01:25:51;;;;;;;4.30;2.33;;;;;;;17.27;52.54;100952.16;5030153;28;20630;-68
2023/08/12 01:28:19;;;;;;;4.43;2.53;;;;;;;17.26;52.29;100955.63;5030426;28;20253;-71
2023/08/12 01:30:57;;;;;;;4.88;1.80;;;;;;;17.24;52.46;100947.00;5030348;28;20578;-68
2023/08/12 01:33:34;;;;;;;5.85;2.03;;;;;;;17.22;52.93;100947.94;5029250;28;20331;-68
2023/08/12 01:36:09;;;;;;;4.68;2.38;;;;;;;17.20;53.00;100949.72;5025041;28;20565;-68
2023/08/12 01:38:40;;;;;;;5.40;2.15;;;;;;;17.17;53.12;100958.47;5023185;28;20210;-68
2023/08/12 01:41:11;;;;;;;3.70;2.50;;;;;;;17.15;53.31;100955.03;5026957;28;20229;-69
2023/08/12 01:43:40;;;;;;;5.38;2.58;;;;;;;17.09;53.43;100957.81;5028846;28;20261;-70
2023/08/12 01:46:08;;;;;;;5.15;2.03;;;;;;;17.09;53.73;100958.66;5029428;28;20234;-69
2023/08/12 01:48:36;;;;;;;4.13;2.20;;;;;;;17.08;53.89;100962.13;5029426;28;20214;-69
2023/08/12 01:51:04;;;;;;;5.03;2.50;;;;;;;17.08;54.17;100958.66;5029097;28;20211;-70
2023/08/12 01:53:32;;;;;;;5.13;2.65;;;;;;;17.08;54.21;100961.28;5027721;28;20578;-70
2023/08/12 01:56:02;;;;;;;3.67;2.55;;;;;;;17.08;54.50;100958.66;5020220;28;20194;-69
2023/08/12 01:58:30;;;;;;;4.75;2.50;;;;;;;17.05;54.55;100954.41;5032330;28;20662;-68
2023/08/12 02:00:58;;;;;;;6.13;2.90;;;;;;;17.06;54.67;100957.88;5024949;28;20210;-70
2023/08/12 02:03:25;;;;;;;4.78;2.72;;;;;;;17.01;54.84;100954.50;5023897;28;20233;-70
2023/08/12 02:05:53;;;;;;;6.20;2.60;;;;;;;17.02;54.91;100966.66;5027715;28;20301;-68
2023/08/12 02:08:21;;;;;;;5.45;2.47;;;;;;;16.99;54.76;100962.34;5029953;28;20202;-69
2023/08/12 02:10:49;;;;;;;6.00;2.88;;;;;;;16.96;54.84;100962.44;5026683;28;20199;-71
2023/08/12 02:13:19;;;;;;;6.18;2.60;;;;;;;16.92;55.24;100959.94;5025153;28;20213;-68
2023/08/12 02:15:47;;;;;;;6.55;2.97;;;;;;;16.89;55.27;100963.44;5028230;28;20646;-68
2023/08/12 02:18:15;;;;;;;6.55;3.05;;;;;;;16.86;55.58;100961.81;5029503;28;20637;-70
2023/08/12 02:20:43;;;;;;;6.72;2.83;;;;;;;16.86;54.94;100955.72;5029713;28;20260;-68
2023/08/12 02:23:11;;;;;;;6.63;3.35;;;;;;;16.81;54.94;100954.97;5029977;28;20249;-68
2023/08/12 02:25:39;;;;;;;6.28;3.47;;;;;;;16.75;55.75;100948.13;5026335;28;20281;-68
2023/08/12 02:28:07;;;;;;;5.80;3.15;;;;;;;16.71;55.70;100954.28;5029616;28;20206;-67
2023/08/12 02:30:36;;;;;;;7.35;3.30;;;;;;;16.74;55.99;100962.06;5026462;28;20222;-71
2023/08/12 02:33:04;;;;;;;3.85;2.80;;;;;;;16.75;56.20;100963.75;5028370;28;20649;-69
2023/08/12 02:35:33;;;;;;;5.30;2.90;;;;;;;16.74;56.45;100958.59;5027947;28;20232;-68
2023/08/12 02:38:01;;;;;;;5.85;3.33;;;;;;;16.76;56.30;100964.63;5026505;28;20203;-70
2023/08/12 02:40:29;;;;;;;5.97;2.78;;;;;;;16.75;56.50;100961.16;5028867;28;20207;-69
2023/08/12 02:42:57;;;;;;;3.70;2.92;;;;;;;16.74;56.63;100962.06;5028196;28;20203;-67
2023/08/12 02:45:25;;;;;;;3.47;3.00;;;;;;;16.71;56.23;100962.09;5023955;28;20215;-67
2023/08/12 02:47:54;;;;;;;8.20;3.17;;;;;;;16.67;56.70;100966.50;5029388;28;20210;-70
2023/08/12 02:50:22;;;;;;;7.32;3.70;;;;;;;16.64;56.62;100961.38;5031034;28;20219;-69
2023/08/12 02:52:50;;;;;;;8.32;3.75;;;;;;;16.60;56.77;100967.53;5027027;28;20210;-68
2023/08/12 02:55:18;;;;;;;5.22;3.03;;;;;;;16.56;56.67;100968.47;5031803;28;20238;-67
2023/08/12 02:57:46;;;;;;;6.65;3.03;;;;;;;16.55;56.97;100973.72;5032986;28;20198;-68
2023/08/12 03:00:15;;;;;;;7.60;3.30;;;;;;;16.52;57.13;100976.38;5032751;28;20609;-67
2023/08/12 03:02:44;;;;;;;6.93;3.60;;;;;;;16.51;57.03;100978.13;5030088;28;20202;-68
2023/08/12 03:05:14;;;;;;;5.40;3.22;;;;;;;16.51;57.01;100979.88;5029169;28;20211;-68
2023/08/12 03:07:42;;;;;;;4.63;3.22;;;;;;;16.45;56.91;100974.81;5033082;28;20301;-67
2023/08/12 03:10:11;;;;;;;5.03;3.40;;;;;;;16.39;56.83;100979.25;5031235;28;20261;-69
2023/08/12 03:12:39;;;;;;;5.93;3.25;;;;;;;16.36;56.42;100983.66;5031604;28;20297;-69
2023/08/12 03:15:08;;;;;;;5.85;2.92;;;;;;;16.35;55.98;100980.22;5029836;28;20199;-69
2023/08/12 03:17:38;;;;;;;4.20;2.90;;;;;;;16.38;55.14;100980.13;5029712;28;20209;-69
2023/08/12 03:20:08;;;;;;;4.85;3.65;;;;;;;16.42;54.81;100988.72;5029440;28;20645;-68
2023/08/12 03:22:38;;;;;;;7.88;4.95;;;;;;;16.47;54.12;100988.66;5019721;28;20211;-69
2023/08/12 03:25:07;;;;;;;5.72;3.60;;;;;;;16.50;53.97;100989.44;5031246;28;20234;-69
2023/08/12 03:27:35;;;;;;;7.65;3.70;;;;;;;16.47;52.78;100989.50;5029168;28;20679;-69
2023/08/12 03:30:04;;;;;;;5.70;3.30;;;;;;;16.49;52.73;100992.06;5025312;28;20686;-70
2023/08/12 03:32:32;;;;;;;7.82;3.28;;;;;;;16.52;52.96;100994.59;5025713;28;20245;-68
2023/08/12 03:35:01;;;;;;;9.13;3.30;;;;;;;16.55;53.52;100994.53;5031064;28;20661;-67
2023/08/12 03:37:29;;;;;;;7.18;3.55;;;;;;;16.56;53.59;100998.84;5028767;28;20238;-69
2023/08/12 03:39:58;;;;;;;8.48;3.60;;;;;;;16.56;54.30;100999.69;5032102;28;20214;-68
2023/08/12 03:42:26;;;;;;;10.70;4.40;;;;;;;16.55;54.27;100999.75;5024395;28;20214;-67
2023/08/12 03:44:54;;;;;;;6.70;3.40;;;;;;;16.55;54.40;100997.16;5030886;28;20257;-71
2023/08/12 03:47:24;;;;;;;6.60;3.28;;;;;;;16.54;54.82;101000.66;5032083;28;20222;-67
2023/08/12 03:49:52;;;;;;;7.95;3.63;;;;;;;16.53;55.01;100988.50;5030384;28;20209;-70
2023/08/12 03:52:20;;;;;;;5.10;3.35;;;;;;;16.54;54.94;101003.25;5028634;28;20252;-68
2023/08/12 03:54:48;;;;;;;9.10;3.97;;;;;;;16.54;54.47;100992.84;5029367;28;20215;-68
2023/08/12 03:57:18;;;;;;;7.43;3.55;;;;;;;16.56;54.38;101001.44;5029845;28;20658;-69
2023/08/12 03:59:46;;;;;;;5.38;3.70;;;;;;;16.57;54.96;101001.44;5031320;28;20213;-67
2023/08/12 04:02:13;;;;;;;10.05;3.30;;;;;;;16.61;55.14;100991.81;5023994;28;20199;-69
2023/08/12 04:04:43;;;;;;;10.15;3.83;;;;;;;16.63;55.48;100995.22;5031064;28;20207;-68
2023/08/12 04:07:11;;;;;;;5.25;3.45;;;;;;;16.67;55.39;100996.88;5031128;28;20317;-69
2023/08/12 04:09:40;;;;;;;5.30;3.70;;;;;;;16.71;54.90;101001.13;5028563;28;21171;-70
2023/08/12 04:12:08;;;;;;;8.15;3.97;;;;;;;16.72;54.72;100994.19;5030061;28;20654;-68
2023/08/12 04:14:37;;;;;;;5.78;3.58;;;;;;;16.73;54.89;100994.16;5022903;28;20218;-71
2023/08/12 04:17:05;;;;;;;7.80;3.80;;;;;;;16.75;55.04;100992.38;5029032;28;20654;-69
2023/08/12 04:19:33;;;;;;;5.85;3.25;;;;;;;16.76;54.99;100991.53;5031058;28;20269;-68
2023/08/12 04:22:01;;;;;;;6.82;3.38;;;;;;;16.81;55.15;100991.41;5029586;28;20677;-67
2023/08/12 04:24:29;;;;;;;5.55;3.35;;;;;;;16.85;55.34;100988.69;5029615;28;20242;-69
2023/08/12 04:26:57;;;;;;;16.50;4.43;;;;;;;16.92;55.02;100991.16;5027423;28;20225;-69
2023/08/12 04:29:25;;;;;;;4.55;3.45;;;;;;;17.01;54.78;100990.94;5027945;28;20207;-69
2023/08/12 04:31:54;;;;;;;5.65;3.75;;;;;;;17.12;54.40;100988.94;5029111;28;20634;-68
2023/08/12 04:34:22;;;;;;;7.40;4.22;;;;;;;17.21;54.01;100993.09;5030990;28;20206;-69
2023/08/12 04:36:50;;;;;;;4.70;3.30;;;;;;;17.28;54.21;100990.31;5031383;28;20562;-68
2023/08/12 04:39:18;;;;;;;6.28;3.72;;;;;;;17.39;54.02;101003.09;5028392;28;20276;-69
2023/08/12 04:41:46;;;;;;;8.15;4.65;;;;;;;17.47;54.10;100997.69;5025506;28;20238;-67
2023/08/12 04:44:14;;;;;;;4.47;3.58;;;;;;;17.55;53.73;100993.13;5026351;28;20210;-68
2023/08/12 04:46:42;;;;;;;7.18;4.50;;;;;;;17.59;53.07;100998.22;5028899;28;20248;-69
2023/08/12 04:49:11;;;;;;;8.35;4.30;;;;;;;17.66;53.29;100996.31;5028221;28;20253;-68
2023/08/12 04:51:39;;;;;;;8.23;4.18;;;;;;;17.79;53.74;100995.16;5030866;28;20202;-69
2023/08/12 04:54:07;;;;;;;7.47;4.07;;;;;;;17.90;53.15;100989.66;5027049;28;20206;-68
2023/08/12 04:56:35;;;;;;;8.90;4.57;;;;;;;18.03;53.28;100985.81;5028589;28;20589;-68
2023/08/12 04:59:04;;;;;;;8.60;4.25;;;;;;;18.16;53.11;100986.34;5029515;28;20651;-69
2023/08/12 05:01:32;;;;;;;7.93;4.50;;;;;;;18.28;52.36;100980.75;5024837;28;20323;-69
2023/08/12 05:04:00;;;;;;;9.73;3.88;;;;;;;18.36;49.58;100977.94;5025523;28;20629;-72
2023/08/12 05:06:29;;;;;;;9.02;3.20;;;;;;;18.41;48.29;100975.19;5027892;28;20278;-71
2023/08/12 05:09:00;;;;;;;5.38;3.40;;;;;;;18.48;48.11;100979.31;5021382;28;20234;-69
2023/08/12 05:11:28;;;;;;;5.97;3.20;;;;;;;18.55;47.71;100973.03;5028113;28;20233;-70
2023/08/12 05:13:56;;;;;;;4.97;3.47;;;;;;;18.63;47.69;100978.00;5029243;28;20195;-68
2023/08/12 05:16:24;;;;;;;6.85;3.08;;;;;;;18.75;48.09;100975.09;5026435;28;20561;-70
2023/08/12 05:18:52;;;;;;;7.32;3.40;;;;;;;18.89;48.26;100975.53;5026667;28;20288;-69
2023/08/12 05:21:20;;;;;;;8.00;3.28;;;;;;;19.09;48.53;100977.50;5032415;28;20229;-67
2023/08/12 05:23:49;;;;;;;5.47;3.60;;;;;;;19.33;48.42;100974.97;5026452;28;20207;-69
2023/08/12 05:26:17;;;;;;;7.40;3.45;;;;;;;19.55;48.17;100973.34;5027180;28;20287;-70
2023/08/12 05:28:45;;;;;;;5.70;3.00;;;;;;;19.73;47.63;100967.53;5030613;28;20222;-69
2023/08/12 05:31:13;;;;;;;7.10;3.30;;;;;;;19.91;47.18;100965.19;5031525;28;20309;-71
2023/08/12 05:33:41;;;;;;;6.70;3.42;;;;;;;20.08;46.95;100961.97;5024507;28;20202;-71
2023/08/12 05:36:10;;;;;;;4.43;3.00;;;;;;;20.24;46.59;100963.94;5029535;28;20221;-69
2023/08/12 05:38:38;;;;;;;6.10;3.05;;;;;;;20.42;46.47;100966.81;5026676;28;20202;-68
2023/08/12 05:41:08;;;;;;;5.18;3.10;;;;;;;20.56;46.05;100959.31;5028173;28;20657;-69
2023/08/12 05:43:36;;;;;;;4.57;3.05;;;;;;;20.67;45.80;100957.13;5029491;28;20230;-69
2023/08/12 05:46:04;;;;;;;3.70;2.88;;;;;;;20.77;45.46;100967.22;5026915;28;20205;-71
2023/08/12 05:48:32;;;;;;;6.15;2.83;;;;;;;20.90;46.13;100965.84;5029680;28;20266;-69
2023/08/12 05:51:00;;;;;;;3.95;2.70;;;;;;;21.07;45.98;100959.94;5030484;28;20209;-68
2023/08/12 05:53:28;;;;;;;8.63;2.97;;;;;;;21.25;45.91;100961.81;5021852;28;20701;-70
2023/08/12 05:55:55;;;;;;;7.07;2.90;;;;;;;21.42;45.24;100963.75;5031521;28;20229;-68
2023/08/12 05:58:25;;;;;;;4.72;2.90;;;;;;;21.55;44.92;100961.47;5028924;28;20222;-69
2023/08/12 06:00:53;;;;;;;6.55;3.05;;;;;;;21.65;44.46;100953.16;5026167;28;20651;-70
2023/08/12 06:03:21;;;;;;;5.57;3.17;;;;;;;21.77;44.77;100953.53;5030973;28;20689;-65
2023/08/12 06:05:49;;;;;;;5.22;2.67;;;;;;;21.84;44.04;100953.22;5028056;28;20209;-70
2023/08/12 06:08:18;;;;;;;6.25;3.00;;;;;;;21.91;44.03;100951.16;5023399;28;20214;-63
2023/08/12 06:10:46;;;;;;;5.07;2.80;;;;;;;22.03;43.74;100953.25;5027910;28;20199;-64
2023/08/12 06:13:15;;;;;;;6.78;3.30;;;;;;;22.14;44.05;100958.03;5026612;28;20203;-68
2023/08/12 06:15:49;;;;;;;4.32;2.55;;;;;;;22.23;43.15;100952.38;5028581;28;20203;-65
2023/08/12 06:18:20;;;;;;;4.93;2.80;;;;;;;22.30;42.43;100947.69;5029796;28;20202;-63
2023/08/12 06:20:52;;;;;;;6.43;2.92;;;;;;;22.46;42.54;100951.31;5022414;28;20218;-65
2023/08/12 06:23:21;;;;;;;10.43;2.63;;;;;;;22.61;41.91;100950.59;5029623;28;20194;-67
2023/08/12 06:25:48;;;;;;;6.03;2.75;;;;;;;22.71;41.69;100952.78;5032013;28;20292;-64
2023/08/12 06:28:16;;;;;;;4.70;2.80;;;;;;;22.73;41.64;100949.16;5033627;28;20210;-66
2023/08/12 06:30:48;;;;;;;4.25;2.30;;;;;;;22.85;41.65;100958.22;5031206;28;20203;-67
2023/08/12 06:33:16;;;;;;;5.30;2.83;;;;;;;22.99;41.17;100955.81;5030412;28;20570;-64
2023/08/12 06:35:45;;;;;;;6.93;2.40;;;;;;;23.15;41.07;100962.00;5030787;28;20230;-64
2023/08/12 06:38:17;;;;;;;5.90;2.40;;;;;;;23.32;40.56;100957.72;5028188;28;20202;-67
2023/08/12 06:40:46;;;;;;;4.45;2.17;;;;;;;23.47;39.84;100962.19;5026329;28;20700;-68
2023/08/12 06:43:14;;;;;;;3.95;2.20;;;;;;;23.59;39.13;100958.09;5030643;28;20684;-68
2023/08/12 06:45:42;;;;;;;6.10;2.15;;;;;;;23.59;38.24;100961.56;5033666;28;20198;-68
2023/08/12 06:48:12;;;;;;;4.60;1.88;;;;;;;23.51;36.86;100958.47;5024259;28;20353;-69
2023/08/12 06:50:39;;;;;;;4.15;1.80;;;;;;;23.60;37.43;100958.03;5024375;28;20198;-70
2023/08/12 06:53:08;;;;;;;7.10;4.47;;;;;;;23.77;36.56;100954.53;5030985;28;20640;-67
2023/08/12 06:55:36;;;;;;;2.15;1.88;;;;;;;23.77;34.91;100953.69;5024713;28;20229;-68
2023/08/12 06:58:04;;;;;;;3.72;2.08;;;;;;;23.78;35.47;100955.38;5028830;28;20294;-70
2023/08/12 07:00:33;;;;;;;2.92;1.85;;;;;;;23.85;35.92;100962.03;5025143;28;20222;-74
2023/08/12 07:03:01;;;;;;;3.95;2.15;;;;;;;23.95;35.88;100955.38;5029935;28;20292;-72
2023/08/12 07:05:30;;;;;;;3.53;1.70;;;;;;;24.05;35.33;100956.59;5033476;28;20277;-78
2023/08/12 07:07:58;;;;;;;3.83;2.10;;;;;;;24.21;34.78;100950.50;5034171;28;20206;-69
2023/08/12 07:10:27;;;;;;;3.42;1.95;;;;;;;24.48;34.52;100953.44;5031182;28;20198;-70
2023/08/12 07:12:56;;;;;;;3.72;1.27;;;;;;;24.71;33.38;100949.53;5034075;28;20289;-72
2023/08/12 07:15:24;;;;;;;4.38;1.98;;;;;;;24.85;33.11;100960.13;5034584;28;20202;-71
2023/08/12 07:17:52;;;;;;;6.10;1.65;;;;;;;25.09;32.61;100952.63;5035235;28;20215;-70
2023/08/12 07:20:20;;;;;;;3.80;1.60;;;;;;;25.33;32.38;100950.34;5034009;28;20214;-68
2023/08/12 07:22:50;;;;;;;3.10;1.48;;;;;;;25.48;31.64;100953.88;5034136;28;20214;-72
2023/08/12 07:25:18;;;;;;;6.68;2.00;;;;;;;25.63;31.16;100945.06;5034004;28;20685;-74
2023/08/12 07:27:46;;;;;;;5.18;1.90;;;;;;;25.92;30.90;100942.47;5030736;28;20207;-71
2023/08/12 07:30:14;;;;;;;7.75;1.77;;;;;;;26.05;29.28;100940.78;5030818;28;20215;-70
2023/08/12 07:32:42;;;;;;;3.58;1.38;;;;;;;26.15;29.11;100935.78;5033959;28;20206;-70
2023/08/12 07:35:10;;;;;;;5.18;1.60;;;;;;;26.27;29.30;100932.34;5028199;28;20585;-71
2023/08/12 07:37:38;;;;;;;4.00;1.52;;;;;;;26.59;29.27;100937.44;5029806;28;20210;-68
2023/08/12 07:40:09;;;;;;;3.95;1.83;;;;;;;27.15;28.81;100930.25;5030649;28;20734;-73
2023/08/12 07:42:37;;;;;;;2.97;1.40;;;;;;;27.89;27.42;100934.88;5032178;28;20298;-72
2023/08/12 07:45:09;;;;;;;8.35;1.90;;;;;;;28.55;25.79;100932.84;5032410;28;20214;-71
2023/08/12 07:47:37;;;;;;;4.03;1.50;;;;;;;29.22;24.84;100929.66;5030396;28;20206;-70
2023/08/12 07:50:08;;;;;;;5.35;1.20;;;;;;;29.85;24.42;100925.69;5030881;28;20409;-71
2023/08/12 07:52:36;;;;;;;2.55;1.10;;;;;;;30.72;23.35;100919.66;5032008;28;20253;-72
2023/08/12 07:55:08;;;;;;;4.68;1.60;;;;;;;31.86;21.66;100919.78;5028818;28;20294;-72
2023/08/12 07:57:36;;;;;;;2.13;1.38;;;;;;;32.80;20.83;100908.75;5031933;28;20568;-73
2023/08/12 08:00:05;;;;;;;2.78;1.65;;;;;;;33.49;19.97;100905.91;5030815;28;20204;-71
2023/08/12 08:02:33;;;;;;;2.42;1.70;;;;;;;34.04;19.07;100906.00;5030504;28;20206;-73
2023/08/12 08:05:01;;;;;;;2.35;1.38;;;;;;;34.44;18.38;100902.09;5033059;28;20305;-71
2023/08/12 08:07:29;;;;;;;1.60;1.27;;;;;;;34.52;18.35;100904.88;5030406;28;20202;-71
2023/08/12 08:09:57;;;;;;;2.90;1.45;;;;;;;34.24;17.27;100903.19;5031064;28;20681;-70
2023/08/12 08:12:26;;;;;;;7.00;2.97;;;;;;;33.47;17.98;100907.88;5029536;28;20203;-69
2023/08/12 08:14:54;;;;;;;3.03;2.35;;;;;;;32.69;19.13;100902.56;5027465;28;20203;-69
2023/08/12 08:17:22;;;;;;;6.30;3.05;;;;;;;32.26;19.63;100896.72;5029160;28;20210;-72
2023/08/12 08:19:50;;;;;;;3.38;1.45;;;;;;;32.24;20.33;100897.72;5027427;28;20190;-69
2023/08/12 08:22:19;;;;;;;2.85;1.20;;;;;;;32.69;19.59;100893.72;5028053;28;20207;-69
2023/08/12 08:24:47;;;;;;;1.55;1.10;;;;;;;32.92;19.35;100889.81;5029909;28;20816;-70
2023/08/12 08:27:15;;;;;;;4.28;1.98;;;;;;;33.18;18.84;100894.56;5028139;28;20914;-70
2023/08/12 08:29:44;;;;;;;2.35;1.38;;;;;;;33.04;19.39;100890.53;5033025;28;20222;-70
2023/08/12 08:32:12;;;;;;;6.82;1.52;;;;;;;32.92;18.89;100888.97;5021142;28;20708;-64
2023/08/12 08:34:40;;;;;;;4.43;1.38;;;;;;;33.22;18.43;100887.13;5029810;28;20297;-64
2023/08/12 08:37:09;;;;;;;3.97;1.85;;;;;;;33.11;18.44;100891.63;5031526;28;20210;-63
2023/08/12 08:39:37;;;;;;;1.83;1.10;;;;;;;32.72;18.94;100888.94;5025270;28;20662;-67
2023/08/12 08:42:07;;;;;;;4.30;1.42;;;;;;;32.07;19.71;100887.69;5025904;28;20207;-62
2023/08/12 08:44:36;;;;;;;2.30;1.50;;;;;;;31.06;20.85;100888.44;5028527;28;20226;-64
2023/08/12 08:47:07;;;;;;;4.80;1.67;;;;;;;29.93;21.13;100895.84;5029272;28;20670;-63
2023/08/12 08:49:36;;;;;;;3.13;1.70;;;;;;;28.79;23.06;100890.38;5023654;28;20245;-67
2023/08/12 08:52:05;;;;;;;3.88;1.55;;;;;;;27.97;24.84;100891.94;5025373;28;20542;-65
2023/08/12 08:54:32;;;;;;;2.85;1.40;;;;;;;27.51;25.08;100895.13;5026427;28;20733;-64
2023/08/12 08:57:01;;;;;;;3.13;1.80;;;;;;;27.29;26.18;100900.22;5026050;28;20210;-63
2023/08/12 08:59:39;;;;;;;3.85;1.60;;;;;;;27.23;26.08;100901.47;5027460;28;20260;-65
2023/08/12 09:02:16;;;;;;;4.28;1.70;;;;;;;27.04;26.31;100885.09;5027657;28;20665;-66
2023/08/12 09:04:45;;;;;;;4.63;1.52;;;;;;;26.93;27.03;100891.09;5027607;28;20316;-66
2023/08/12 09:07:14;;;;;;;3.15;1.58;;;;;;;26.82;26.65;100885.69;5030183;28;20221;-65
2023/08/12 09:09:47;;;;;;;6.78;1.60;;;;;;;26.88;27.23;100886.13;5024251;28;20296;-69
2023/08/12 09:12:17;;;;;;;3.00;1.40;;;;;;;27.17;26.88;100886.00;5023378;28;20198;-66
2023/08/12 09:14:45;;;;;;;6.20;1.77;;;;;;;27.74;25.92;100879.44;5022438;28;20252;-64
2023/08/12 09:17:15;;;;;;;2.55;1.10;;;;;;;28.55;24.96;100871.00;5030316;28;20240;-66
2023/08/12 09:19:44;;;;;;;1.80;1.42;;;;;;;29.75;23.44;100868.94;5031216;28;20582;-67
2023/08/12 09:22:12;;;;;;;2.05;1.33;;;;;;;31.07;21.46;100862.66;5031292;28;20218;-66
2023/08/12 09:24:41;;;;;;;3.13;1.42;;;;;;;31.68;20.37;100863.56;5029384;28;20281;-66
2023/08/12 09:27:09;;;;;;;2.67;1.35;;;;;;;32.37;19.98;100862.78;5022899;28;20211;-64
2023/08/12 09:29:37;;;;;;;1.42;1.27;;;;;;;33.25;18.92;100866.31;5029123;28;20224;-62
2023/08/12 09:32:11;;;;;;;2.17;1.05;;;;;;;33.04;18.90;100857.63;5026424;28;20201;-63
2023/08/12 09:34:47;;;;;;;3.13;1.35;;;;;;;32.46;19.48;100853.13;5025435;28;20206;-63
2023/08/12 09:37:16;;;;;;;6.15;1.40;;;;;;;31.69;19.86;100854.59;5028908;28;20206;-64
2023/08/12 09:39:44;;;;;;;4.18;1.70;;;;;;;31.01;20.65;100850.72;5030764;28;20199;-64
2023/08/12 09:42:12;;;;;;;3.72;1.42;;;;;;;30.57;22.59;100855.25;5029441;28;20203;-65
2023/08/12 09:44:41;;;;;;;4.72;1.52;;;;;;;30.63;21.90;100843.25;5023928;28;20215;-63
2023/08/12 09:47:10;;;;;;;3.65;1.40;;;;;;;30.88;21.31;100853.56;5020722;28;20211;-64
2023/08/12 09:49:39;;;;;;;2.53;1.45;;;;;;;31.16;20.75;100854.72;5030275;28;20658;-64
2023/08/12 09:52:09;;;;;;;3.17;1.27;;;;;;;31.56;21.50;100854.00;5030949;28;20646;-64
2023/08/12 09:54:39;;;;;;;4.40;1.50;;;;;;;31.89;21.22;100849.38;5030643;28;20209;-63
2023/08/12 09:57:11;;;;;;;4.38;1.58;;;;;;;32.01;20.25;100848.28;5031065;28;20767;-64
2023/08/12 09:59:42;;;;;;;2.75;1.60;;;;;;;32.22;20.21;100842.84;5030029;28;20222;-62
2023/08/12 10:02:18;;;;;;;2.85;1.67;;;;;;;32.41;19.73;100842.06;5034666;28;20289;-64
2023/08/12 10:04:51;;;;;;;3.08;1.38;;;;;;;32.52;19.16;100830.41;5030519;28;20986;-64
2023/08/12 10:07:21;;;;;;;4.75;1.50;;;;;;;32.79;19.91;100832.34;5034504;28;20212;-66
2023/08/12 10:09:49;;;;;;;2.65;1.33;;;;;;;33.28;20.15;100828.59;5032031;28;20219;-65
2023/08/12 10:12:18;;;;;;;3.95;1.73;;;;;;;33.49;19.14;100825.75;5030740;28;20206;-65
2023/08/12 10:14:48;;;;;;;3.53;1.77;;;;;;;33.66;19.14;100824.13;5031701;28;20607;-66
2023/08/12 10:17:17;;;;;;;3.38;1.80;;;;;;;34.06;18.18;100820.25;5030548;28;20203;-67
2023/08/12 10:20:06;;;;;;;4.47;1.80;;;;;;;34.71;17.46;100820.03;5034492;28;20618;-67
2023/08/12 10:22:36;;;;;;;5.55;1.85;;;;;;;35.38;17.45;100821.16;5031151;28;20703;-67
2023/08/12 10:25:05;;;;;;;3.25;1.60;;;;;;;35.98;16.16;100815.72;5025439;28;20623;-67
2023/08/12 10:27:32;;;;;;;3.60;1.85;;;;;;;35.82;15.87;100812.97;5031865;28;20585;-66
2023/08/12 10:30:03;;;;;;;4.07;1.63;;;;;;;35.78;16.56;100811.63;5032232;28;20242;-66
2023/08/12 10:32:32;;;;;;;2.95;1.77;;;;;;;35.95;16.46;100807.16;5028182;28;20578;-66
2023/08/12 10:35:01;;;;;;;3.28;1.40;;;;;;;36.24;15.69;100809.41;5021670;28;20207;-66
2023/08/12 10:37:33;;;;;;;4.00;1.77;;;;;;;36.66;16.16;100795.00;5025175;28;20221;-64
2023/08/12 10:40:07;;;;;;;3.90;1.60;;;;;;;36.91;16.25;100796.63;5027495;28;20195;-71
2023/08/12 10:42:43;;;;;;;5.30;1.80;;;;;;;37.03;16.48;100801.69;5027657;28;20851;-69
2023/08/12 10:45:12;;;;;;;4.05;1.50;;;;;;;37.02;15.83;100800.00;5031830;28;20593;-63
2023/08/12 10:47:43;;;;;;;5.32;2.05;;;;;;;36.98;16.33;100800.34;5033575;28;20249;-65
2023/08/12 10:50:19;;;;;;;2.97;1.50;;;;;;;37.26;15.23;100791.84;5032628;28;20218;-64
2023/08/12 10:52:47;;;;;;;3.47;1.85;;;;;;;37.26;14.87;100791.84;5033599;28;20210;-63
2023/08/12 10:55:22;;;;;;;3.67;1.80;;;;;;;37.40;14.96;100777.69;5033141;28;20743;-64
2023/08/12 10:57:50;;;;;;;2.35;1.38;;;;;;;37.29;16.05;100780.75;5023283;28;20574;-62
2023/08/12 11:00:24;;;;;;;2.67;1.52;;;;;;;37.20;15.35;100788.03;5027383;28;20202;-63
2023/08/12 11:02:55;;;;;;;27.95;4.18;;;;;;;37.14;15.66;100788.72;5027706;28;20218;-65
2023/08/12 11:05:24;;;;;;;8.75;1.83;;;;;;;37.39;15.54;100776.03;5020786;28;20673;-69
2023/08/12 11:07:58;;;;;;;3.92;1.80;;;;;;;37.55;15.50;100769.75;5031593;28;20214;-61
2023/08/12 11:10:29;;;;;;;4.07;1.60;;;;;;;37.70;15.46;100764.47;5029570;28;20223;-63
2023/08/12 11:13:02;;;;;;;3.30;1.65;;;;;;;37.55;15.44;100774.28;5024482;28;20221;-64
2023/08/12 11:15:36;;;;;;;8.13;1.67;;;;;;;37.63;15.19;100760.81;5032596;28;20581;-64
2023/08/12 11:18:05;;;;;;;3.95;1.77;;;;;;;37.87;16.13;100757.97;5031420;28;20689;-64
2023/08/12 11:20:35;;;;;;;3.00;1.33;;;;;;;37.55;16.09;100758.16;5029442;28;20294;-59
2023/08/12 11:23:05;;;;;;;3.17;1.55;;;;;;;37.27;16.55;100761.31;5026964;28;20206;-61
2023/08/12 11:25:35;;;;;;;3.95;2.10;;;;;;;37.08;17.26;100759.88;5027001;28;20246;-64
2023/08/12 11:28:05;;;;;;;4.80;2.03;;;;;;;36.59;17.81;100756.41;5021916;28;20217;-66
2023/08/12 11:30:33;;;;;;;2.28;1.38;;;;;;;36.22;17.04;100749.69;5024999;28;20674;-64
2023/08/12 11:33:03;;;;;;;4.78;1.70;;;;;;;35.71;16.64;100762.31;5032463;28;20237;-64